ข้อมูล



Site ID Timestamp Level Salinity Voltage Current Power Energy AC Power Battery Cabinet SP Failure
OT03 2020-02-28 00:00 -0.88 1.88 0.00 0.00 0.00 0.00 OK OK Close Normal
IN04 2020-02-28 00:00 -1.18 14.25 0.00 0.00 0.00 0.00 Fail OK Close Normal
OT02 2020-02-28 00:00 -0.40 7.31 0.00 0.00 0.00 0.00 OK OK Close Normal
IN01 2020-02-28 00:00 -1.36 6.75 0.00 0.00 0.00 0.00 OK OK Close Normal
OT01 2020-02-28 00:00 -0.72 6.94 0.00 0.00 0.00 0.00 OK OK Close Normal
OT04 2020-02-28 00:00 -1.06 14.63 0.00 0.00 0.00 0.00 OK OK Close Normal
OT05 2020-02-28 00:00 0.38 -18.75 0.00 0.00 0.00 0.00 OK OK Close Normal
OT03 2020-02-28 00:01 -0.88 1.97 0.00 0.00 0.00 0.00 OK OK Close Normal
IN04 2020-02-28 00:01 -1.18 14.34 0.00 0.00 0.00 0.00 Fail OK Close Normal
IN02 2020-02-28 00:00 -1.75 6.23 0.00 0.00 0.00 0.00 OK OK Close Normal
OT02 2020-02-28 00:01 -0.40 7.08 0.00 0.00 0.00 0.00 OK OK Close Normal
IN01 2020-02-28 00:01 -1.37 7.45 0.00 0.00 0.00 0.00 OK OK Close Normal
OT01 2020-02-28 00:01 -0.72 5.95 0.00 0.00 0.00 0.00 OK OK Close Normal
OT04 2020-02-28 00:01 -1.06 14.39 0.00 0.00 0.00 0.00 OK OK Close Normal
OT05 2020-02-28 00:01 0.33 -18.75 0.00 0.00 0.00 0.00 OK OK Close Normal
OT03 2020-02-28 00:02 -0.90 2.02 0.00 0.00 0.00 0.00 OK OK Close Normal
IN04 2020-02-28 00:02 -1.19 14.30 0.00 0.00 0.00 0.00 Fail OK Close Normal
IN02 2020-02-28 00:01 -1.76 6.05 0.00 0.00 0.00 0.00 OK OK Close Normal
OT02 2020-02-28 00:02 -0.45 7.50 0.00 0.00 0.00 0.00 OK OK Close Normal
IN01 2020-02-28 00:02 -1.37 6.61 0.00 0.00 0.00 0.00 OK OK Close Normal
OT01 2020-02-28 00:02 -0.77 6.61 0.00 0.00 0.00 0.00 OK OK Close Normal
OT04 2020-02-28 00:02 -1.06 14.77 0.00 0.00 0.00 0.00 OK OK Close Normal
OT05 2020-02-28 00:02 0.37 -18.75 0.00 0.00 0.00 0.00 OK OK Close Normal
OT03 2020-02-28 00:03 -0.89 2.20 0.00 0.00 0.00 0.00 OK OK Close Normal
IN04 2020-02-28 00:03 -1.19 14.67 0.00 0.00 0.00 0.00 Fail OK Close Normal
IN02 2020-02-28 00:02 -1.75 6.42 0.00 0.00 0.00 0.00 OK OK Close Normal
OT02 2020-02-28 00:03 -0.45 7.50 0.00 0.00 0.00 0.00 OK OK Close Normal
IN01 2020-02-28 00:03 -1.38 6.84 0.00 0.00 0.00 0.00 OK OK Close Normal
OT01 2020-02-28 00:03 -0.74 6.28 0.00 0.00 0.00 0.00 OK OK Close Normal
OT04 2020-02-28 00:03 -1.08 14.48 0.00 0.00 0.00 0.00 OK OK Close Normal
OT05 2020-02-28 00:03 0.36 -18.75 0.00 0.00 0.00 0.00 OK OK Close Normal
OT03 2020-02-28 00:04 -0.90 1.92 0.00 0.00 0.00 0.00 OK OK Close Normal
IN04 2020-02-28 00:04 -1.19 14.63 0.00 0.00 0.00 0.00 Fail OK Close Normal
IN02 2020-02-28 00:03 -1.75 6.38 0.00 0.00 0.00 0.00 OK OK Close Normal
OT02 2020-02-28 00:04 -0.46 7.64 0.00 0.00 0.00 0.00 OK OK Close Normal
IN01 2020-02-28 00:04 -1.37 8.06 0.00 0.00 0.00 0.00 OK OK Close Normal
OT01 2020-02-28 00:04 -0.77 6.52 0.00 0.00 0.00 0.00 OK OK Close Normal
OT04 2020-02-28 00:04 -1.09 14.67 0.00 0.00 0.00 0.00 OK OK Close Normal
OT05 2020-02-28 00:04 0.35 -18.75 0.00 0.00 0.00 0.00 OK OK Close Normal
OT03 2020-02-28 00:05 -0.90 2.16 0.00 0.00 0.00 0.00 OK OK Close Normal
IN04 2020-02-28 00:05 -1.19 14.63 0.00 0.00 0.00 0.00 Fail OK Close Normal
IN02 2020-02-28 00:04 -1.75 6.56 0.00 0.00 0.00 0.00 OK OK Close Normal
OT02 2020-02-28 00:05 -0.43 7.17 0.00 0.00 0.00 0.00 OK OK Close Normal
IN01 2020-02-28 00:05 -1.37 8.44 0.00 0.00 0.00 0.00 OK OK Close Normal
OT01 2020-02-28 00:05 -0.74 6.38 0.00 0.00 0.00 0.00 OK OK Close Normal
OT04 2020-02-28 00:05 -1.10 14.30 0.00 0.00 0.00 0.00 OK OK Close Normal
OT05 2020-02-28 00:05 0.35 -18.75 0.00 0.00 0.00 0.00 OK OK Close Normal
OT03 2020-02-28 00:06 -0.91 2.11 0.00 0.00 0.00 0.00 OK OK Close Normal
IN04 2020-02-28 00:06 -1.19 14.48 0.00 0.00 0.00 0.00 Fail OK Close Normal
IN02 2020-02-28 00:05 -1.77 6.19 0.00 0.00 0.00 0.00 OK OK Close Normal
OT02 2020-02-28 00:06 -0.43 7.69 0.00 0.00 0.00 0.00 OK OK Close Normal
IN01 2020-02-28 00:06 -1.37 7.92 0.00 0.00 0.00 0.00 OK OK Close Normal
OT01 2020-02-28 00:06 -0.76 6.75 0.00 0.00 0.00 0.00 OK OK Close Normal
OT04 2020-02-28 00:06 -1.11 14.48 0.00 0.00 0.00 0.00 OK OK Close Normal
OT05 2020-02-28 00:06 0.35 -18.75 0.00 0.00 0.00 0.00 OK OK Close Normal
OT03 2020-02-28 00:07 -0.91 1.97 0.00 0.00 0.00 0.00 OK OK Close Normal
IN04 2020-02-28 00:07 -1.19 14.63 0.00 0.00 0.00 0.00 Fail OK Close Normal
IN02 2020-02-28 00:06 -1.76 6.19 0.00 0.00 0.00 0.00 OK OK Close Normal
OT02 2020-02-28 00:07 -0.44 7.59 0.00 0.00 0.00 0.00 OK OK Close Normal
IN01 2020-02-28 00:07 -1.37 8.63 0.00 0.00 0.00 0.00 OK OK Close Normal
OT01 2020-02-28 00:07 -0.78 6.61 0.00 0.00 0.00 0.00 OK OK Close Normal
OT04 2020-02-28 00:07 -1.11 14.30 0.00 0.00 0.00 0.00 OK OK Close Normal
OT05 2020-02-28 00:07 0.33 -18.75 0.00 0.00 0.00 0.00 OK OK Close Normal
OT03 2020-02-28 00:08 -0.92 2.02 0.00 0.00 0.00 0.00 OK OK Close Normal
IN04 2020-02-28 00:08 -1.19 14.48 0.00 0.00 0.00 0.00 Fail OK Close Normal
IN02 2020-02-28 00:07 -1.75 6.42 0.00 0.00 0.00 0.00 OK OK Close Normal
OT02 2020-02-28 00:08 -0.45 7.73 0.00 0.00 0.00 0.00 OK OK Close Normal
IN01 2020-02-28 00:08 -1.39 8.86 0.00 0.00 0.00 0.00 OK OK Close Normal
OT01 2020-02-28 00:08 -0.77 6.47 0.00 0.00 0.00 0.00 OK OK Close Normal
OT04 2020-02-28 00:08 -1.11 14.48 0.00 0.00 0.00 0.00 OK OK Close Normal
OT05 2020-02-28 00:08 0.33 -18.75 0.00 0.00 0.00 0.00 OK OK Close Normal
OT03 2020-02-28 00:09 -0.93 2.30 0.00 0.00 0.00 0.00 OK OK Close Normal
IN04 2020-02-28 00:09 -1.19 14.39 0.00 0.00 0.00 0.00 Fail OK Close Normal
IN02 2020-02-28 00:08 -1.75 6.00 0.00 0.00 0.00 0.00 OK OK Close Normal
OT02 2020-02-28 00:09 -0.46 7.88 0.00 0.00 0.00 0.00 OK OK Close Normal
IN01 2020-02-28 00:09 -1.39 8.53 0.00 0.00 0.00 0.00 OK OK Close Normal
OT01 2020-02-28 00:09 -0.84 6.56 0.00 0.00 0.00 0.00 OK OK Close Normal
OT04 2020-02-28 00:09 -1.13 14.34 0.00 0.00 0.00 0.00 OK OK Close Normal
OT05 2020-02-28 00:09 0.33 -18.75 0.00 0.00 0.00 0.00 OK OK Close Normal
OT03 2020-02-28 00:10 -0.93 1.83 0.00 0.00 0.00 0.00 OK OK Close Normal
IN04 2020-02-28 00:10 -1.20 14.77 0.00 0.00 0.00 0.00 Fail OK Close Normal
IN02 2020-02-28 00:09 -1.75 5.91 0.00 0.00 0.00 0.00 OK OK Close Normal
OT02 2020-02-28 00:10 -0.46 7.45 0.00 0.00 0.00 0.00 OK OK Close Normal
IN01 2020-02-28 00:10 -1.37 8.81 0.00 0.00 0.00 0.00 OK OK Close Normal
OT01 2020-02-28 00:10 -0.81 6.19 0.00 0.00 0.00 0.00 OK OK Close Normal
OT04 2020-02-28 00:10 -1.13 14.58 0.00 0.00 0.00 0.00 OK OK Close Normal
OT05 2020-02-28 00:10 0.32 -18.75 0.00 0.00 0.00 0.00 OK OK Close Normal
OT03 2020-02-28 00:11 -0.95 1.88 0.00 0.00 0.00 0.00 OK OK Close Normal
IN04 2020-02-28 00:11 -1.20 14.44 0.00 0.00 0.00 0.00 Fail OK Close Normal
IN02 2020-02-28 00:10 -1.75 6.28 0.00 0.00 0.00 0.00 OK OK Close Normal
OT02 2020-02-28 00:11 -0.51 7.97 0.00 0.00 0.00 0.00 OK OK Close Normal
IN01 2020-02-28 00:11 -1.37 8.48 0.00 0.00 0.00 0.00 OK OK Close Normal
OT01 2020-02-28 00:11 -0.80 5.91 0.00 0.00 0.00 0.00 OK OK Close Normal
OT04 2020-02-28 00:11 -1.13 14.44 0.00 0.00 0.00 0.00 OK OK Close Normal
OT05 2020-02-28 00:11 0.32 -18.75 0.00 0.00 0.00 0.00 OK OK Close Normal
OT03 2020-02-28 00:12 -0.96 1.73 0.00 0.00 0.00 0.00 OK OK Close Normal
IN04 2020-02-28 00:12 -1.19 14.39 0.00 0.00 0.00 0.00 Fail OK Close Normal
IN02 2020-02-28 00:11 -1.75 6.33 0.00 0.00 0.00 0.00 OK OK Close Normal
OT02 2020-02-28 00:12 -0.47 7.69 0.00 0.00 0.00 0.00 OK OK Close Normal
IN01 2020-02-28 00:12 -1.37 8.44 0.00 0.00 0.00 0.00 OK OK Close Normal
OT01 2020-02-28 00:12 -0.80 6.38 0.00 0.00 0.00 0.00 OK OK Close Normal
OT04 2020-02-28 00:12 -1.13 14.44 0.00 0.00 0.00 0.00 OK OK Close Normal
OT05 2020-02-28 00:12 0.32 -18.75 0.00 0.00 0.00 0.00 OK OK Close Normal
OT03 2020-02-28 00:13 -0.93 1.88 0.00 0.00 0.00 0.00 OK OK Close Normal
IN04 2020-02-28 00:13 -1.20 14.30 0.00 0.00 0.00 0.00 Fail OK Close Normal
IN02 2020-02-28 00:12 -1.75 6.33 0.00 0.00 0.00 0.00 OK OK Close Normal
OT02 2020-02-28 00:13 -0.49 7.83 0.00 0.00 0.00 0.00 OK OK Close Normal
IN01 2020-02-28 00:13 -1.37 9.09 0.00 0.00 0.00 0.00 OK OK Close Normal
OT01 2020-02-28 00:13 -0.81 6.42 0.00 0.00 0.00 0.00 OK OK Close Normal
OT04 2020-02-28 00:13 -1.17 14.39 0.00 0.00 0.00 0.00 OK OK Close Normal
OT05 2020-02-28 00:13 0.31 -18.75 0.00 0.00 0.00 0.00 OK OK Close Normal
OT03 2020-02-28 00:14 -0.95 1.69 0.00 0.00 0.00 0.00 OK OK Close Normal
IN04 2020-02-28 00:14 -1.19 14.25 0.00 0.00 0.00 0.00 Fail OK Close Normal
IN02 2020-02-28 00:13 -1.76 6.33 0.00 0.00 0.00 0.00 OK OK Close Normal
OT02 2020-02-28 00:14 -0.49 6.84 0.00 0.00 0.00 0.00 OK OK Close Normal
IN01 2020-02-28 00:14 -1.37 7.97 0.00 0.00 0.00 0.00 OK OK Close Normal
OT01 2020-02-28 00:14 -0.84 6.66 0.00 0.00 0.00 0.00 OK OK Close Normal
OT04 2020-02-28 00:14 -1.14 14.16 0.00 0.00 0.00 0.00 OK OK Close Normal
OT05 2020-02-28 00:14 0.30 -18.75 0.00 0.00 0.00 0.00 OK OK Close Normal
OT03 2020-02-28 00:15 -0.96 2.06 0.00 0.00 0.00 0.00 OK OK Close Normal
IN04 2020-02-28 00:15 -1.20 14.63 0.00 0.00 0.00 0.00 Fail OK Close Normal
IN02 2020-02-28 00:14 -1.76 6.38 0.00 0.00 0.00 0.00 OK OK Close Normal
OT02 2020-02-28 00:15 -0.51 7.64 0.00 0.00 0.00 0.00 OK OK Close Normal
IN01 2020-02-28 00:15 -1.37 8.16 0.00 0.00 0.00 0.00 OK OK Close Normal
OT01 2020-02-28 00:15 -0.82 6.52 0.00 0.00 0.00 0.00 OK OK Close Normal
OT04 2020-02-28 00:15 -1.16 14.02 0.00 0.00 0.00 0.00 OK OK Close Normal
OT05 2020-02-28 00:15 0.29 -18.75 0.00 0.00 0.00 0.00 OK OK Close Normal
OT03 2020-02-28 00:16 -0.94 2.11 0.00 0.00 0.00 0.00 OK OK Close Normal
IN04 2020-02-28 00:16 -1.20 14.77 0.00 0.00 0.00 0.00 Fail OK Close Normal
IN02 2020-02-28 00:15 -1.76 6.09 0.00 0.00 0.00 0.00 OK OK Close Normal
OT02 2020-02-28 00:16 -0.54 7.64 0.00 0.00 0.00 0.00 OK OK Close Normal
IN01 2020-02-28 00:16 -1.37 8.86 0.00 0.00 0.00 0.00 OK OK Close Normal
OT01 2020-02-28 00:16 -0.82 6.47 0.00 0.00 0.00 0.00 OK OK Close Normal
OT04 2020-02-28 00:16 -1.13 14.63 0.00 0.00 0.00 0.00 OK OK Close Normal
OT05 2020-02-28 00:16 0.29 -18.75 0.00 0.00 0.00 0.00 OK OK Close Normal
OT03 2020-02-28 00:17 -0.97 2.30 0.00 0.00 0.00 0.00 OK OK Close Normal
IN04 2020-02-28 00:17 -1.20 14.34 0.00 0.00 0.00 0.00 Fail OK Close Normal
IN02 2020-02-28 00:16 -1.78 6.47 0.00 0.00 0.00 0.00 OK OK Close Normal
OT02 2020-02-28 00:17 -0.51 7.17 0.00 0.00 0.00 0.00 OK OK Close Normal
IN01 2020-02-28 00:17 -1.38 9.09 0.00 0.00 0.00 0.00 OK OK Close Normal
OT01 2020-02-28 00:17 -0.83 6.61 0.00 0.00 0.00 0.00 OK OK Close Normal
OT04 2020-02-28 00:17 -1.16 14.95 0.00 0.00 0.00 0.00 OK OK Close Normal
OT05 2020-02-28 00:17 0.28 -18.75 0.00 0.00 0.00 0.00 OK OK Close Normal
OT03 2020-02-28 00:18 -0.97 1.78 0.00 0.00 0.00 0.00 OK OK Close Normal
IN04 2020-02-28 00:18 -1.20 14.58 0.00 0.00 0.00 0.00 Fail OK Close Normal
IN02 2020-02-28 00:17 -1.76 6.28 0.00 0.00 0.00 0.00 OK OK Close Normal
OT02 2020-02-28 00:18 -0.55 7.17 0.00 0.00 0.00 0.00 OK OK Close Normal
IN01 2020-02-28 00:18 -1.38 8.91 0.00 0.00 0.00 0.00 OK OK Close Normal
OT01 2020-02-28 00:18 -0.84 6.33 0.00 0.00 0.00 0.00 OK OK Close Normal
OT04 2020-02-28 00:18 -1.17 14.39 0.00 0.00 0.00 0.00 OK OK Close Normal
OT05 2020-02-28 00:18 0.23 -18.75 0.00 0.00 0.00 0.00 OK OK Close Normal
OT03 2020-02-28 00:19 -0.99 1.97 0.00 0.00 0.00 0.00 OK OK Close Normal
IN04 2020-02-28 00:19 -1.20 14.34 0.00 0.00 0.00 0.00 Fail OK Close Normal
IN02 2020-02-28 00:18 -1.76 5.91 0.00 0.00 0.00 0.00 OK OK Close Normal
OT02 2020-02-28 00:19 -0.55 7.36 0.00 0.00 0.00 0.00 OK OK Close Normal
IN01 2020-02-28 00:19 -1.38 8.95 0.00 0.00 0.00 0.00 OK OK Close Normal
OT01 2020-02-28 00:19 -0.86 6.66 0.00 0.00 0.00 0.00 OK OK Close Normal
OT04 2020-02-28 00:19 -1.17 14.48 0.00 0.00 0.00 0.00 OK OK Close Normal
OT05 2020-02-28 00:19 0.22 -18.75 0.00 0.00 0.00 0.00 OK OK Close Normal
OT03 2020-02-28 00:20 -1.01 1.97 0.00 0.00 0.00 0.00 OK OK Close Normal
IN04 2020-02-28 00:20 -1.20 14.16 0.00 0.00 0.00 0.00 Fail OK Close Normal
IN02 2020-02-28 00:19 -1.76 6.28 0.00 0.00 0.00 0.00 OK OK Close Normal
OT02 2020-02-28 00:20 -0.56 7.64 0.00 0.00 0.00 0.00 OK OK Close Normal
IN01 2020-02-28 00:20 -1.38 9.14 0.00 0.00 0.00 0.00 OK OK Close Normal
OT01 2020-02-28 00:20 -0.86 6.28 0.00 0.00 0.00 0.00 OK OK Close Normal
OT04 2020-02-28 00:20 -1.15 14.34 0.00 0.00 0.00 0.00 OK OK Close Normal
OT05 2020-02-28 00:20 0.27 -18.75 0.00 0.00 0.00 0.00 OK OK Close Normal
OT03 2020-02-28 00:21 -1.00 2.34 0.00 0.00 0.00 0.00 OK OK Close Normal
IN04 2020-02-28 00:21 -1.21 14.58 0.00 0.00 0.00 0.00 Fail OK Close Normal
IN02 2020-02-28 00:20 -1.76 6.38 0.00 0.00 0.00 0.00 OK OK Close Normal
OT02 2020-02-28 00:21 -0.52 7.83 0.00 0.00 0.00 0.00 OK OK Close Normal
IN01 2020-02-28 00:21 -1.38 9.19 0.00 0.00 0.00 0.00 OK OK Close Normal
OT01 2020-02-28 00:21 -0.90 6.52 0.00 0.00 0.00 0.00 OK OK Close Normal
OT04 2020-02-28 00:21 -1.18 14.48 0.00 0.00 0.00 0.00 OK OK Close Normal
OT05 2020-02-28 00:21 0.23 -18.75 0.00 0.00 0.00 0.00 OK OK Close Normal
OT03 2020-02-28 00:22 -0.98 1.55 0.00 0.00 0.00 0.00 OK OK Close Normal
IN04 2020-02-28 00:22 -1.21 14.44 0.00 0.00 0.00 0.00 Fail OK Close Normal
IN02 2020-02-28 00:21 -1.76 6.05 0.00 0.00 0.00 0.00 OK OK Close Normal
OT02 2020-02-28 00:22 -0.57 7.55 0.00 0.00 0.00 0.00 OK OK Close Normal
IN01 2020-02-28 00:22 -1.38 8.72 0.00 0.00 0.00 0.00 OK OK Close Normal
OT01 2020-02-28 00:22 -0.86 6.89 0.00 0.00 0.00 0.00 OK OK Close Normal
OT04 2020-02-28 00:22 -1.17 14.20 0.00 0.00 0.00 0.00 OK OK Close Normal
OT05 2020-02-28 00:22 0.26 -18.75 0.00 0.00 0.00 0.00 OK OK Close Normal
OT03 2020-02-28 00:23 -1.01 2.06 0.00 0.00 0.00 0.00 OK OK Close Normal
IN04 2020-02-28 00:23 -1.21 14.44 0.00 0.00 0.00 0.00 Fail OK Close Normal
IN02 2020-02-28 00:22 -1.76 5.91 0.00 0.00 0.00 0.00 OK OK Close Normal
OT02 2020-02-28 00:23 -0.54 7.83 0.00 0.00 0.00 0.00 OK OK Close Normal
IN01 2020-02-28 00:23 -1.39 9.70 0.00 0.00 0.00 0.00 OK OK Close Normal
OT01 2020-02-28 00:23 -0.87 6.52 0.00 0.00 0.00 0.00 OK OK Close Normal
OT04 2020-02-28 00:23 -1.17 13.83 0.00 0.00 0.00 0.00 OK OK Close Normal
OT05 2020-02-28 00:23 0.23 -18.75 0.00 0.00 0.00 0.00 OK OK Close Normal
OT03 2020-02-28 00:24 -1.01 1.88 0.00 0.00 0.00 0.00 OK OK Close Normal
IN04 2020-02-28 00:24 -1.21 14.95 0.00 0.00 0.00 0.00 Fail OK Close Normal
IN02 2020-02-28 00:23 -1.76 6.28 0.00 0.00 0.00 0.00 OK OK Close Normal
OT02 2020-02-28 00:24 -0.55 7.55 0.00 0.00 0.00 0.00 OK OK Close Normal
IN01 2020-02-28 00:24 -1.38 9.84 0.00 0.00 0.00 0.00 OK OK Close Normal
OT01 2020-02-28 00:24 -0.87 6.05 0.00 0.00 0.00 0.00 OK OK Close Normal
OT04 2020-02-28 00:24 -1.17 13.92 0.00 0.00 0.00 0.00 OK OK Close Normal
OT05 2020-02-28 00:24 0.25 -18.75 0.00 0.00 0.00 0.00 OK OK Close Normal
OT03 2020-02-28 00:25 -1.02 1.88 0.00 0.00 0.00 0.00 OK OK Close Normal
IN04 2020-02-28 00:25 -1.21 14.39 0.00 0.00 0.00 0.00 Fail OK Close Normal
IN02 2020-02-28 00:24 -1.76 5.77 0.00 0.00 0.00 0.00 OK OK Close Normal
OT02 2020-02-28 00:25 -0.59 7.69 0.00 0.00 0.00 0.00 OK OK Close Normal
IN01 2020-02-28 00:25 -1.38 10.36 0.00 0.00 0.00 0.00 OK OK Close Normal
OT01 2020-02-28 00:25 -0.87 6.19 0.00 0.00 0.00 0.00 OK OK Close Normal
OT04 2020-02-28 00:25 -1.17 14.16 0.00 0.00 0.00 0.00 OK OK Close Normal
OT05 2020-02-28 00:25 0.25 -18.75 0.00 0.00 0.00 0.00 OK OK Close Normal
OT03 2020-02-28 00:26 -1.02 2.02 0.00 0.00 0.00 0.00 OK OK Close Normal
IN04 2020-02-28 00:26 -1.21 14.53 0.00 0.00 0.00 0.00 Fail OK Close Normal
IN02 2020-02-28 00:25 -1.76 6.23 0.00 0.00 0.00 0.00 OK OK Close Normal
OT02 2020-02-28 00:26 -0.56 7.83 0.00 0.00 0.00 0.00 OK OK Close Normal
IN01 2020-02-28 00:26 -1.39 9.33 0.00 0.00 0.00 0.00 OK OK Close Normal
OT01 2020-02-28 00:26 -0.88 6.09 0.00 0.00 0.00 0.00 OK OK Close Normal
OT04 2020-02-28 00:26 -1.19 14.11 0.00 0.00 0.00 0.00 OK OK Close Normal
OT05 2020-02-28 00:26 0.20 -18.75 0.00 0.00 0.00 0.00 OK OK Close Normal
OT03 2020-02-28 00:27 -1.03 1.97 0.00 0.00 0.00 0.00 OK OK Close Normal
IN04 2020-02-28 00:27 -1.20 14.25 0.00 0.00 0.00 0.00 Fail OK Close Normal
IN02 2020-02-28 00:26 -1.76 5.67 0.00 0.00 0.00 0.00 OK OK Close Normal
OT02 2020-02-28 00:27 -0.57 7.55 0.00 0.00 0.00 0.00 OK OK Close Normal
IN01 2020-02-28 00:27 -1.40 9.14 0.00 0.00 0.00 0.00 OK OK Close Normal
OT01 2020-02-28 00:27 -0.90 5.81 0.00 0.00 0.00 0.00 OK OK Close Normal
OT04 2020-02-28 00:27 -1.20 13.92 0.00 0.00 0.00 0.00 OK OK Close Normal
OT05 2020-02-28 00:27 0.24 -18.75 0.00 0.00 0.00 0.00 OK OK Close Normal
OT03 2020-02-28 00:28 -1.01 1.69 0.00 0.00 0.00 0.00 OK OK Close Normal
IN04 2020-02-28 00:28 -1.21 14.67 0.00 0.00 0.00 0.00 Fail OK Close Normal
IN02 2020-02-28 00:27 -1.79 5.81 0.00 0.00 0.00 0.00 OK OK Close Normal
OT02 2020-02-28 00:28 -0.58 7.45 0.00 0.00 0.00 0.00 OK OK Close Normal
IN01 2020-02-28 00:28 -1.38 9.94 0.00 0.00 0.00 0.00 OK OK Close Normal
OT01 2020-02-28 00:28 -0.89 6.33 0.00 0.00 0.00 0.00 OK OK Close Normal
OT04 2020-02-28 00:28 -1.21 14.20 0.00 0.00 0.00 0.00 OK OK Close Normal
OT05 2020-02-28 00:28 0.23 -18.75 0.00 0.00 0.00 0.00 OK OK Close Normal
OT03 2020-02-28 00:29 -1.05 2.30 0.00 0.00 0.00 0.00 OK OK Close Normal
IN04 2020-02-28 00:29 -1.21 14.63 0.00 0.00 0.00 0.00 Fail OK Close Normal
IN02 2020-02-28 00:28 -1.77 6.14 0.00 0.00 0.00 0.00 OK OK Close Normal
OT02 2020-02-28 00:29 -0.62 7.22 0.00 0.00 0.00 0.00 OK OK Close Normal
IN01 2020-02-28 00:29 -1.38 10.22 0.00 0.00 0.00 0.00 OK OK Close Normal
OT01 2020-02-28 00:29 -0.90 6.61 0.00 0.00 0.00 0.00 OK OK Close Normal
OT04 2020-02-28 00:29 -1.20 14.20 0.00 0.00 0.00 0.00 OK OK Close Normal
OT05 2020-02-28 00:29 0.22 -18.75 0.00 0.00 0.00 0.00 OK OK Close Normal
OT03 2020-02-28 00:30 -1.05 2.16 0.00 0.00 0.00 0.00 OK OK Close Normal
IN04 2020-02-28 00:30 -1.21 14.39 0.00 0.00 0.00 0.00 Fail OK Close Normal
IN02 2020-02-28 00:29 -1.77 6.28 0.00 0.00 0.00 0.00 OK OK Close Normal
OT02 2020-02-28 00:30 -0.58 7.55 0.00 0.00 0.00 0.00 OK OK Close Normal
IN01 2020-02-28 00:30 -1.40 9.94 0.00 0.00 0.00 0.00 OK OK Close Normal
OT01 2020-02-28 00:30 -0.91 6.38 0.00 0.00 0.00 0.00 OK OK Close Normal
OT04 2020-02-28 00:30 -1.20 13.97 0.00 0.00 0.00 0.00 OK OK Close Normal
OT05 2020-02-28 00:30 0.21 -18.75 0.00 0.00 0.00 0.00 OK OK Close Normal
OT03 2020-02-28 00:31 -1.06 2.25 0.00 0.00 0.00 0.00 OK OK Close Normal
IN04 2020-02-28 00:31 -1.21 14.58 0.00 0.00 0.00 0.00 Fail OK Close Normal
IN02 2020-02-28 00:30 -1.79 6.28 0.00 0.00 0.00 0.00 OK OK Close Normal
OT02 2020-02-28 00:31 -0.63 7.73 0.00 0.00 0.00 0.00 OK OK Close Normal
IN01 2020-02-28 00:31 -1.38 9.89 0.00 0.00 0.00 0.00 OK OK Close Normal
OT01 2020-02-28 00:31 -0.91 6.33 0.00 0.00 0.00 0.00 OK OK Close Normal
OT04 2020-02-28 00:31 -1.21 14.34 0.00 0.00 0.00 0.00 OK OK Close Normal
OT05 2020-02-28 00:31 0.21 -18.75 0.00 0.00 0.00 0.00 OK OK Close Normal
OT03 2020-02-28 00:32 -1.05 2.44 0.00 0.00 0.00 0.00 OK OK Close Normal
IN04 2020-02-28 00:32 -1.21 14.48 0.00 0.00 0.00 0.00 Fail OK Close Normal
IN02 2020-02-28 00:31 -1.77 6.38 0.00 0.00 0.00 0.00 OK OK Close Normal
OT02 2020-02-28 00:32 -0.59 7.59 0.00 0.00 0.00 0.00 OK OK Close Normal
IN01 2020-02-28 00:32 -1.41 9.89 0.00 0.00 0.00 0.00 OK OK Close Normal
OT01 2020-02-28 00:32 -0.95 6.09 0.00 0.00 0.00 0.00 OK OK Close Normal
OT04 2020-02-28 00:32 -1.22 14.06 0.00 0.00 0.00 0.00 OK OK Close Normal
OT05 2020-02-28 00:32 0.21 -18.75 0.00 0.00 0.00 0.00 OK OK Close Normal
OT03 2020-02-28 00:33 -1.06 1.97 0.00 0.00 0.00 0.00 OK OK Close Normal
IN04 2020-02-28 00:33 -1.22 14.58 0.00 0.00 0.00 0.00 Fail OK Close Normal
IN02 2020-02-28 00:32 -1.77 6.19 0.00 0.00 0.00 0.00 OK OK Close Normal
OT02 2020-02-28 00:33 -0.59 7.13 0.00 0.00 0.00 0.00 OK OK Close Normal
IN01 2020-02-28 00:33 -1.41 9.47 0.00 0.00 0.00 0.00 OK OK Close Normal
OT01 2020-02-28 00:33 -0.91 6.33 0.00 0.00 0.00 0.00 OK OK Close Normal
OT04 2020-02-28 00:33 -1.21 14.20 0.00 0.00 0.00 0.00 OK OK Close Normal
OT05 2020-02-28 00:33 0.20 -18.75 0.00 0.00 0.00 0.00 OK OK Close Normal
OT03 2020-02-28 00:34 -1.06 2.02 0.00 0.00 0.00 0.00 OK OK Close Normal
IN04 2020-02-28 00:34 -1.22 14.44 0.00 0.00 0.00 0.00 Fail OK Close Normal
IN02 2020-02-28 00:33 -1.77 6.33 0.00 0.00 0.00 0.00 OK OK Close Normal
OT02 2020-02-28 00:34 -0.62 7.36 0.00 0.00 0.00 0.00 OK OK Close Normal
IN01 2020-02-28 00:34 -1.39 8.48 0.00 0.00 0.00 0.00 OK OK Close Normal
OT01 2020-02-28 00:34 -0.94 6.00 0.00 0.00 0.00 0.00 OK OK Close Normal
OT04 2020-02-28 00:34 -1.23 14.25 0.00 0.00 0.00 0.00 OK OK Close Normal
OT05 2020-02-28 00:34 0.20 -18.75 0.00 0.00 0.00 0.00 OK OK Close Normal
OT03 2020-02-28 00:35 -1.05 1.97 0.00 0.00 0.00 0.00 OK OK Close Normal
IN04 2020-02-28 00:35 -1.22 14.77 0.00 0.00 0.00 0.00 Fail OK Close Normal
IN02 2020-02-28 00:34 -1.77 6.14 0.00 0.00 0.00 0.00 OK OK Close Normal
OT02 2020-02-28 00:35 -0.64 7.50 0.00 0.00 0.00 0.00 OK OK Close Normal
IN01 2020-02-28 00:35 -1.39 7.88 0.00 0.00 0.00 0.00 OK OK Close Normal
OT01 2020-02-28 00:35 -0.93 6.28 0.00 0.00 0.00 0.00 OK OK Close Normal
OT04 2020-02-28 00:35 -1.22 14.06 0.00 0.00 0.00 0.00 OK OK Close Normal
OT05 2020-02-28 00:35 0.20 -18.75 0.00 0.00 0.00 0.00 OK OK Close Normal
OT03 2020-02-28 00:36 -1.05 1.88 0.00 0.00 0.00 0.00 OK OK Close Normal
IN04 2020-02-28 00:36 -1.22 14.39 0.00 0.00 0.00 0.00 Fail OK Close Normal
IN02 2020-02-28 00:35 -1.77 6.09 0.00 0.00 0.00 0.00 OK OK Close Normal
OT02 2020-02-28 00:36 -0.61 7.31 0.00 0.00 0.00 0.00 OK OK Close Normal
IN01 2020-02-28 00:36 -1.39 7.17 0.00 0.00 0.00 0.00 OK OK Close Normal
OT01 2020-02-28 00:36 -0.94 5.77 0.00 0.00 0.00 0.00 OK OK Close Normal
OT04 2020-02-28 00:36 -1.23 13.97 0.00 0.00 0.00 0.00 OK OK Close Normal
OT05 2020-02-28 00:36 0.19 -18.75 0.00 0.00 0.00 0.00 OK OK Close Normal
OT03 2020-02-28 00:37 -1.07 1.97 0.00 0.00 0.00 0.00 OK OK Close Normal
IN04 2020-02-28 00:37 -1.21 14.81 0.00 0.00 0.00 0.00 Fail OK Close Normal
IN02 2020-02-28 00:36 -1.77 6.09 0.00 0.00 0.00 0.00 OK OK Close Normal
OT02 2020-02-28 00:37 -0.62 7.08 0.00 0.00 0.00 0.00 OK OK Close Normal
IN01 2020-02-28 00:37 -1.39 8.34 0.00 0.00 0.00 0.00 OK OK Close Normal
OT01 2020-02-28 00:37 -0.91 6.38 0.00 0.00 0.00 0.00 OK OK Close Normal
OT04 2020-02-28 00:37 -1.20 14.11 0.00 0.00 0.00 0.00 OK OK Close Normal
OT05 2020-02-28 00:37 0.19 -18.75 0.00 0.00 0.00 0.00 OK OK Close Normal
OT03 2020-02-28 00:38 -1.06 1.88 0.00 0.00 0.00 0.00 OK OK Close Normal
IN04 2020-02-28 00:38 -1.22 14.39 0.00 0.00 0.00 0.00 Fail OK Close Normal
IN02 2020-02-28 00:37 -1.78 5.58 0.00 0.00 0.00 0.00 OK OK Close Normal
OT02 2020-02-28 00:38 -0.66 7.55 0.00 0.00 0.00 0.00 OK OK Close Normal
IN01 2020-02-28 00:38 -1.41 7.50 0.00 0.00 0.00 0.00 OK OK Close Normal
OT01 2020-02-28 00:38 -0.95 6.47 0.00 0.00 0.00 0.00 OK OK Close Normal
OT04 2020-02-28 00:38 -1.24 14.30 0.00 0.00 0.00 0.00 OK OK Close Normal
OT05 2020-02-28 00:38 0.17 -18.75 0.00 0.00 0.00 0.00 OK OK Close Normal
OT03 2020-02-28 00:39 -1.08 1.88 0.00 0.00 0.00 0.00 OK OK Close Normal
IN04 2020-02-28 00:39 -1.22 14.53 0.00 0.00 0.00 0.00 Fail OK Close Normal
IN02 2020-02-28 00:38 -1.77 6.19 0.00 0.00 0.00 0.00 OK OK Close Normal
OT02 2020-02-28 00:39 -0.63 7.13 0.00 0.00 0.00 0.00 OK OK Close Normal
IN01 2020-02-28 00:39 -1.39 7.88 0.00 0.00 0.00 0.00 OK OK Close Normal
OT01 2020-02-28 00:39 -0.94 6.52 0.00 0.00 0.00 0.00 OK OK Close Normal
OT04 2020-02-28 00:39 -1.24 13.78 0.00 0.00 0.00 0.00 OK OK Close Normal
OT05 2020-02-28 00:39 0.18 -18.75 0.00 0.00 0.00 0.00 OK OK Close Normal
OT03 2020-02-28 00:40 -1.08 2.30 0.00 0.00 0.00 0.00 OK OK Close Normal
IN04 2020-02-28 00:40 -1.22 14.48 0.00 0.00 0.00 0.00 Fail OK Close Normal
IN02 2020-02-28 00:39 -1.78 6.52 0.00 0.00 0.00 0.00 OK OK Close Normal
OT02 2020-02-28 00:40 -0.67 7.36 0.00 0.00 0.00 0.00 OK OK Close Normal
IN01 2020-02-28 00:40 -1.39 8.02 0.00 0.00 0.00 0.00 OK OK Close Normal
OT01 2020-02-28 00:40 -0.94 6.66 0.00 0.00 0.00 0.00 OK OK Close Normal
OT04 2020-02-28 00:40 -1.25 14.16 0.00 0.00 0.00 0.00 OK OK Close Normal
OT05 2020-02-28 00:40 0.18 -18.75 0.00 0.00 0.00 0.00 OK OK Close Normal
OT03 2020-02-28 00:41 -1.09 1.73 0.00 0.00 0.00 0.00 OK OK Close Normal
IN04 2020-02-28 00:41 -1.22 14.48 0.00 0.00 0.00 0.00 Fail OK Close Normal
IN02 2020-02-28 00:40 -1.77 5.86 0.00 0.00 0.00 0.00 OK OK Close Normal
OT02 2020-02-28 00:41 -0.64 7.45 0.00 0.00 0.00 0.00 OK OK Close Normal
IN01 2020-02-28 00:41 -1.39 7.88 0.00 0.00 0.00 0.00 OK OK Close Normal
OT01 2020-02-28 00:41 -0.96 6.14 0.00 0.00 0.00 0.00 OK OK Close Normal
OT04 2020-02-28 00:41 -1.25 13.88 0.00 0.00 0.00 0.00 OK OK Close Normal
OT05 2020-02-28 00:41 0.17 -18.75 0.00 0.00 0.00 0.00 OK OK Close Normal
OT03 2020-02-28 00:42 -1.08 2.20 0.00 0.00 0.00 0.00 OK OK Close Normal
IN04 2020-02-28 00:42 -1.22 14.39 0.00 0.00 0.00 0.00 Fail OK Close Normal
IN02 2020-02-28 00:41 -1.77 6.00 0.00 0.00 0.00 0.00 OK OK Close Normal
OT02 2020-02-28 00:42 -0.64 7.59 0.00 0.00 0.00 0.00 OK OK Close Normal
IN01 2020-02-28 00:42 -1.39 8.48 0.00 0.00 0.00 0.00 OK OK Close Normal
OT01 2020-02-28 00:42 -0.99 6.61 0.00 0.00 0.00 0.00 OK OK Close Normal
OT04 2020-02-28 00:42 -1.25 14.39 0.00 0.00 0.00 0.00 OK OK Close Normal
OT05 2020-02-28 00:42 0.17 -18.75 0.00 0.00 0.00 0.00 OK OK Close Normal
OT03 2020-02-28 00:43 -1.10 1.97 0.00 0.00 0.00 0.00 OK OK Close Normal
IN04 2020-02-28 00:43 -1.22 14.48 0.00 0.00 0.00 0.00 Fail OK Close Normal
IN02 2020-02-28 00:42 -1.77 6.28 0.00 0.00 0.00 0.00 OK OK Close Normal
OT02 2020-02-28 00:43 -0.64 7.55 0.00 0.00 0.00 0.00 OK OK Close Normal
IN01 2020-02-28 00:43 -1.40 8.25 0.00 0.00 0.00 0.00 OK OK Close Normal
OT01 2020-02-28 00:43 -1.00 6.75 0.00 0.00 0.00 0.00 OK OK Close Normal
OT04 2020-02-28 00:43 -1.25 14.25 0.00 0.00 0.00 0.00 OK OK Close Normal
OT05 2020-02-28 00:43 0.17 -18.75 0.00 0.00 0.00 0.00 OK OK Close Normal
OT03 2020-02-28 00:44 -1.09 1.69 0.00 0.00 0.00 0.00 OK OK Close Normal
IN04 2020-02-28 00:44 -1.21 14.58 0.00 0.00 0.00 0.00 Fail OK Close Normal
IN02 2020-02-28 00:43 -1.77 6.28 0.00 0.00 0.00 0.00 OK OK Close Normal
OT02 2020-02-28 00:44 -0.69 7.41 0.00 0.00 0.00 0.00 OK OK Close Normal
IN01 2020-02-28 00:44 -1.40 8.34 0.00 0.00 0.00 0.00 OK OK Close Normal
OT01 2020-02-28 00:44 -0.97 6.09 0.00 0.00 0.00 0.00 OK OK Close Normal
OT04 2020-02-28 00:44 -1.30 3.05 0.00 0.00 0.00 0.00 OK OK Close Normal
OT05 2020-02-28 00:44 0.13 -18.75 0.00 0.00 0.00 0.00 OK OK Close Normal
OT03 2020-02-28 00:45 -1.10 2.11 0.00 0.00 0.00 0.00 OK OK Close Normal
IN04 2020-02-28 00:45 -1.23 14.77 0.00 0.00 0.00 0.00 Fail OK Close Normal
IN02 2020-02-28 00:44 -1.78 6.38 0.00 0.00 0.00 0.00 OK OK Close Normal
OT02 2020-02-28 00:45 -0.66 7.69 0.00 0.00 0.00 0.00 OK OK Close Normal
IN01 2020-02-28 00:45 -1.39 8.63 0.00 0.00 0.00 0.00 OK OK Close Normal
OT01 2020-02-28 00:45 -0.96 6.42 0.00 0.00 0.00 0.00 OK OK Close Normal
OT04 2020-02-28 00:45 -1.23 14.25 0.00 0.00 0.00 0.00 OK OK Close Normal
OT05 2020-02-28 00:45 0.16 -18.75 0.00 0.00 0.00 0.00 OK OK Close Normal
OT03 2020-02-28 00:46 -1.11 1.92 0.00 0.00 0.00 0.00 OK OK Close Normal
IN04 2020-02-28 00:46 -1.23 14.72 0.00 0.00 0.00 0.00 Fail OK Close Normal
IN02 2020-02-28 00:45 -1.78 6.28 0.00 0.00 0.00 0.00 OK OK Close Normal
OT02 2020-02-28 00:46 -0.66 7.41 0.00 0.00 0.00 0.00 OK OK Close Normal
IN01 2020-02-28 00:46 -1.40 8.30 0.00 0.00 0.00 0.00 OK OK Close Normal
OT01 2020-02-28 00:46 -0.99 6.61 0.00 0.00 0.00 0.00 OK OK Close Normal
OT04 2020-02-28 00:46 -1.29 13.92 0.00 0.00 0.00 0.00 OK OK Close Normal
OT05 2020-02-28 00:46 0.15 -18.75 0.00 0.00 0.00 0.00 OK OK Close Normal
OT03 2020-02-28 00:47 -1.11 2.02 0.00 0.00 0.00 0.00 OK OK Close Normal
IN04 2020-02-28 00:47 -1.23 14.48 0.00 0.00 0.00 0.00 Fail OK Close Normal
IN02 2020-02-28 00:46 -1.78 6.23 0.00 0.00 0.00 0.00 OK OK Close Normal
OT02 2020-02-28 00:47 -0.70 7.59 0.00 0.00 0.00 0.00 OK OK Close Normal
IN01 2020-02-28 00:47 -1.40 8.72 0.00 0.00 0.00 0.00 OK OK Close Normal
OT01 2020-02-28 00:47 -1.00 5.72 0.00 0.00 0.00 0.00 OK OK Close Normal
OT04 2020-02-28 00:47 -1.26 14.20 0.00 0.00 0.00 0.00 OK OK Close Normal
OT05 2020-02-28 00:47 0.14 -18.75 0.00 0.00 0.00 0.00 OK OK Close Normal
OT03 2020-02-28 00:48 -1.11 1.55 0.00 0.00 0.00 0.00 OK OK Close Normal
IN04 2020-02-28 00:48 -1.23 14.39 0.00 0.00 0.00 0.00 Fail OK Close Normal
IN02 2020-02-28 00:47 -1.78 6.33 0.00 0.00 0.00 0.00 OK OK Close Normal
OT02 2020-02-28 00:48 -0.66 6.94 0.00 0.00 0.00 0.00 OK OK Close Normal
IN01 2020-02-28 00:48 -1.40 9.19 0.00 0.00 0.00 0.00 OK OK Close Normal
OT01 2020-02-28 00:49 -1.03 6.33 0.00 0.00 0.00 0.00 OK OK Close Normal
OT04 2020-02-28 00:48 -1.28 13.73 0.00 0.00 0.00 0.00 OK OK Close Normal
OT05 2020-02-28 00:48 0.15 -18.75 0.00 0.00 0.00 0.00 OK OK Close Normal
OT03 2020-02-28 00:49 -1.12 2.34 0.00 0.00 0.00 0.00 OK OK Close Normal
IN04 2020-02-28 00:49 -1.23 14.20 0.00 0.00 0.00 0.00 Fail OK Close Normal
IN02 2020-02-28 00:48 -1.78 6.23 0.00 0.00 0.00 0.00 OK OK Close Normal
OT02 2020-02-28 00:49 -0.68 6.98 0.00 0.00 0.00 0.00 OK OK Close Normal
IN01 2020-02-28 00:49 -1.40 7.59 0.00 0.00 0.00 0.00 OK OK Close Normal
OT01 2020-02-28 00:50 -0.98 6.70 0.00 0.00 0.00 0.00 OK OK Close Normal
OT04 2020-02-28 00:49 -1.28 13.97 0.00 0.00 0.00 0.00 OK OK Close Normal
OT05 2020-02-28 00:49 0.14 -18.75 0.00 0.00 0.00 0.00 OK OK Close Normal
OT03 2020-02-28 00:50 -1.14 1.73 0.00 0.00 0.00 0.00 OK OK Close Normal
IN04 2020-02-28 00:50 -1.23 14.44 0.00 0.00 0.00 0.00 Fail OK Close Normal
IN02 2020-02-28 00:49 -1.78 6.38 0.00 0.00 0.00 0.00 OK OK Close Normal
OT02 2020-02-28 00:50 -0.67 7.31 0.00 0.00 0.00 0.00 OK OK Close Normal
IN01 2020-02-28 00:50 -1.40 8.06 0.00 0.00 0.00 0.00 OK OK Close Normal
OT01 2020-02-28 00:51 -1.00 6.33 0.00 0.00 0.00 0.00 OK OK Close Normal
OT04 2020-02-28 00:50 -1.28 13.88 0.00 0.00 0.00 0.00 OK OK Close Normal
OT05 2020-02-28 00:50 0.14 -18.75 0.00 0.00 0.00 0.00 OK OK Close Normal
OT03 2020-02-28 00:51 -1.11 2.44 0.00 0.00 0.00 0.00 OK OK Close Normal
IN04 2020-02-28 00:51 -1.23 14.67 0.00 0.00 0.00 0.00 Fail OK Close Normal
IN02 2020-02-28 00:50 -1.78 5.95 0.00 0.00 0.00 0.00 OK OK Close Normal
OT02 2020-02-28 00:51 -0.72 6.84 0.00 0.00 0.00 0.00 OK OK Close Normal
IN01 2020-02-28 00:51 -1.40 7.45 0.00 0.00 0.00 0.00 OK OK Close Normal
OT01 2020-02-28 00:52 -1.00 6.42 0.00 0.00 0.00 0.00 OK OK Close Normal
OT04 2020-02-28 00:51 -1.28 13.92 0.00 0.00 0.00 0.00 OK OK Close Normal
OT05 2020-02-28 00:51 0.14 -18.75 0.00 0.00 0.00 0.00 OK OK Close Normal
OT03 2020-02-28 00:52 -1.10 2.20 0.00 0.00 0.00 0.00 OK OK Close Normal
IN04 2020-02-28 00:52 -1.23 14.20 0.00 0.00 0.00 0.00 Fail OK Close Normal
IN02 2020-02-28 00:51 -1.78 6.38 0.00 0.00 0.00 0.00 OK OK Close Normal
OT02 2020-02-28 00:52 -0.70 7.08 0.00 0.00 0.00 0.00 OK OK Close Normal
IN01 2020-02-28 00:52 -1.42 8.53 0.00 0.00 0.00 0.00 OK OK Close Normal
OT01 2020-02-28 00:53 -1.04 5.91 0.00 0.00 0.00 0.00 OK OK Close Normal
OT04 2020-02-28 00:52 -1.27 14.20 0.00 0.00 0.00 0.00 OK OK Close Normal
OT05 2020-02-28 00:52 0.13 -18.75 0.00 0.00 0.00 0.00 OK OK Close Normal
OT03 2020-02-28 00:53 -1.13 1.88 0.00 0.00 0.00 0.00 OK OK Close Normal
IN04 2020-02-28 00:53 -1.23 14.34 0.00 0.00 0.00 0.00 Fail OK Close Normal
IN02 2020-02-28 00:52 -1.78 5.81 0.00 0.00 0.00 0.00 OK OK Close Normal
OT02 2020-02-28 00:53 -0.68 7.50 0.00 0.00 0.00 0.00 OK OK Close Normal
IN01 2020-02-28 00:53 -1.42 8.34 0.00 0.00 0.00 0.00 OK OK Close Normal
OT01 2020-02-28 00:54 -1.05 6.42 0.00 0.00 0.00 0.00 OK OK Close Normal
OT04 2020-02-28 00:53 -1.29 14.34 0.00 0.00 0.00 0.00 OK OK Close Normal
OT05 2020-02-28 00:53 0.14 -18.75 0.00 0.00 0.00 0.00 OK OK Close Normal
OT03 2020-02-28 00:54 -1.12 2.20 0.00 0.00 0.00 0.00 OK OK Close Normal
IN04 2020-02-28 00:54 -1.23 14.81 0.00 0.00 0.00 0.00 Fail OK Close Normal
IN02 2020-02-28 00:53 -1.78 6.23 0.00 0.00 0.00 0.00 OK OK Close Normal
OT02 2020-02-28 00:54 -0.69 7.41 0.00 0.00 0.00 0.00 OK OK Close Normal
IN01 2020-02-28 00:54 -1.40 8.30 0.00 0.00 0.00 0.00 OK OK Close Normal
OT01 2020-02-28 00:55 -1.01 5.95 0.00 0.00 0.00 0.00 OK OK Close Normal
OT04 2020-02-28 00:54 -1.28 14.20 0.00 0.00 0.00 0.00 OK OK Close Normal
OT05 2020-02-28 00:54 0.13 -18.75 0.00 0.00 0.00 0.00 OK OK Close Normal
OT03 2020-02-28 00:55 -1.15 1.97 0.00 0.00 0.00 0.00 OK OK Close Normal
IN04 2020-02-28 00:55 -1.23 14.39 0.00 0.00 0.00 0.00 Fail OK Close Normal
IN02 2020-02-28 00:54 -1.78 6.33 0.00 0.00 0.00 0.00 OK OK Close Normal
OT02 2020-02-28 00:55 -0.69 7.50 0.00 0.00 0.00 0.00 OK OK Close Normal
IN01 2020-02-28 00:55 -1.40 8.44 0.00 0.00 0.00 0.00 OK OK Close Normal
OT01 2020-02-28 00:56 -1.06 6.23 0.00 0.00 0.00 0.00 OK OK Close Normal
OT04 2020-02-28 00:55 -1.31 13.97 0.00 0.00 0.00 0.00 OK OK Close Normal
OT05 2020-02-28 00:55 0.07 -18.75 0.00 0.00 0.00 0.00 OK OK Close Normal
OT03 2020-02-28 00:56 -1.13 2.02 0.00 0.00 0.00 0.00 OK OK Close Normal
IN04 2020-02-28 00:56 -1.23 14.44 0.00 0.00 0.00 0.00 Fail OK Close Normal
IN02 2020-02-28 00:55 -1.78 6.28 0.00 0.00 0.00 0.00 OK OK Close Normal
OT02 2020-02-28 00:56 -0.70 7.50 0.00 0.00 0.00 0.00 OK OK Close Normal
IN01 2020-02-28 00:56 -1.40 8.39 0.00 0.00 0.00 0.00 OK OK Close Normal
OT01 2020-02-28 00:57 -1.02 6.05 0.00 0.00 0.00 0.00 OK OK Close Normal
OT04 2020-02-28 00:56 -1.28 14.20 0.00 0.00 0.00 0.00 OK OK Close Normal
OT05 2020-02-28 00:56 0.12 -18.75 0.00 0.00 0.00 0.00 OK OK Close Normal
OT03 2020-02-28 00:57 -1.15 2.02 0.00 0.00 0.00 0.00 OK OK Close Normal
IN04 2020-02-28 00:57 -1.23 14.58 0.00 0.00 0.00 0.00 Fail OK Close Normal
IN02 2020-02-28 00:56 -1.78 6.05 0.00 0.00 0.00 0.00 OK OK Close Normal
OT02 2020-02-28 00:57 -0.71 7.41 0.00 0.00 0.00 0.00 OK OK Close Normal
IN01 2020-02-28 00:57 -1.42 8.34 0.00 0.00 0.00 0.00 OK OK Close Normal
OT01 2020-02-28 00:58 -1.04 5.91 0.00 0.00 0.00 0.00 OK OK Close Normal
OT04 2020-02-28 00:57 -1.31 14.20 0.00 0.00 0.00 0.00 OK OK Close Normal
OT05 2020-02-28 00:57 0.12 -18.75 0.00 0.00 0.00 0.00 OK OK Close Normal
OT03 2020-02-28 00:58 -1.15 1.92 0.00 0.00 0.00 0.00 OK OK Close Normal
IN04 2020-02-28 00:58 -1.24 14.44 0.00 0.00 0.00 0.00 Fail OK Close Normal
IN02 2020-02-28 00:57 -1.79 6.42 0.00 0.00 0.00 0.00 OK OK Close Normal
OT02 2020-02-28 00:58 -0.70 7.31 0.00 0.00 0.00 0.00 OK OK Close Normal
IN01 2020-02-28 00:58 -1.42 8.02 0.00 0.00 0.00 0.00 OK OK Close Normal
OT01 2020-02-28 00:59 -1.02 6.42 0.00 0.00 0.00 0.00 OK OK Close Normal
OT04 2020-02-28 00:58 -1.31 14.39 0.00 0.00 0.00 0.00 OK OK Close Normal
OT05 2020-02-28 00:58 0.11 -18.75 0.00 0.00 0.00 0.00 OK OK Close Normal
OT03 2020-02-28 00:59 -1.16 1.97 0.00 0.00 0.00 0.00 OK OK Close Normal
IN04 2020-02-28 00:59 -1.23 14.53 0.00 0.00 0.00 0.00 Fail OK Close Normal
IN02 2020-02-28 00:58 -1.78 6.61 0.00 0.00 0.00 0.00 OK OK Close Normal
OT02 2020-02-28 00:59 -0.71 7.69 0.00 0.00 0.00 0.00 OK OK Close Normal
IN01 2020-02-28 00:59 -1.41 8.20 0.00 0.00 0.00 0.00 OK OK Close Normal
OT01 2020-02-28 01:00 -1.02 6.19 0.00 0.00 0.00 0.00 OK OK Close Normal
OT04 2020-02-28 00:59 -1.29 14.06 0.00 0.00 0.00 0.00 OK OK Close Normal
OT05 2020-02-28 00:59 0.11 -18.75 0.00 0.00 0.00 0.00 OK OK Close Normal
OT03 2020-02-28 01:00 -1.14 2.02 0.00 0.00 0.00 0.00 OK OK Close Normal
IN04 2020-02-28 01:00 -1.24 14.48 0.00 0.00 0.00 0.00 Fail OK Close Normal
IN02 2020-02-28 00:59 -1.79 6.42 0.00 0.00 0.00 0.00 OK OK Close Normal
OT02 2020-02-28 01:00 -0.72 7.27 0.00 0.00 0.00 0.00 OK OK Close Normal
IN01 2020-02-28 01:00 -1.41 9.33 0.00 0.00 0.00 0.00 OK OK Close Normal
OT01 2020-02-28 01:01 -1.07 6.56 0.00 0.00 0.00 0.00 OK OK Close Normal
OT04 2020-02-28 01:00 -1.32 14.11 0.00 0.00 0.00 0.00 OK OK Close Normal
OT05 2020-02-28 01:00 0.10 -18.75 0.00 0.00 0.00 0.00 OK OK Close Normal
OT03 2020-02-28 01:01 -1.15 2.53 0.00 0.00 0.00 0.00 OK OK Close Normal
IN04 2020-02-28 01:01 -1.24 14.20 0.00 0.00 0.00 0.00 Fail OK Close Normal
OT02 2020-02-28 01:01 -0.72 7.22 0.00 0.00 0.00 0.00 OK OK Close Normal
IN02 2020-02-28 01:00 -1.79 6.28 0.00 0.00 0.00 0.00 OK OK Close Normal
IN01 2020-02-28 01:01 -1.41 8.67 0.00 0.00 0.00 0.00 OK OK Close Normal
OT01 2020-02-28 01:02 -1.10 6.56 0.00 0.00 0.00 0.00 OK OK Close Normal
OT04 2020-02-28 01:01 -1.30 14.16 0.00 0.00 0.00 0.00 OK OK Close Normal
OT05 2020-02-28 01:01 0.09 -18.75 0.00 0.00 0.00 0.00 OK OK Close Normal
OT03 2020-02-28 01:02 -1.14 2.34 0.00 0.00 0.00 0.00 OK OK Close Normal
IN04 2020-02-28 01:02 -1.24 14.30 0.00 0.00 0.00 0.00 Fail OK Close Normal
IN02 2020-02-28 01:01 -1.79 6.33 0.00 0.00 0.00 0.00 OK OK Close Normal
OT02 2020-02-28 01:02 -0.72 7.13 0.00 0.00 0.00 0.00 OK OK Close Normal
IN01 2020-02-28 01:02 -1.43 9.70 0.00 0.00 0.00 0.00 OK OK Close Normal
OT01 2020-02-28 01:03 -1.04 6.47 0.00 0.00 0.00 0.00 OK OK Close Normal
OT04 2020-02-28 01:02 -1.33 14.11 0.00 0.00 0.00 0.00 OK OK Close Normal
OT05 2020-02-28 01:02 0.10 -18.75 0.00 0.00 0.00 0.00 OK OK Close Normal
OT03 2020-02-28 01:03 -1.17 2.02 0.00 0.00 0.00 0.00 OK OK Close Normal
IN04 2020-02-28 01:03 -1.24 14.58 0.00 0.00 0.00 0.00 Fail OK Close Normal
OT02 2020-02-28 01:03 -0.77 7.64 0.00 0.00 0.00 0.00 OK OK Close Normal
IN02 2020-02-28 01:02 -1.79 6.56 0.00 0.00 0.00 0.00 OK OK Close Normal
IN01 2020-02-28 01:03 -1.42 10.03 0.00 0.00 0.00 0.00 OK OK Close Normal
OT01 2020-02-28 01:04 -1.06 6.42 0.00 0.00 0.00 0.00 OK OK Close Normal
OT04 2020-02-28 01:03 -1.31 14.02 0.00 0.00 0.00 0.00 OK OK Close Normal
OT05 2020-02-28 01:03 0.09 -18.75 0.00 0.00 0.00 0.00 OK OK Close Normal
OT03 2020-02-28 01:04 -1.17 1.83 0.00 0.00 0.00 0.00 OK OK Close Normal
IN04 2020-02-28 01:04 -1.24 14.63 0.00 0.00 0.00 0.00 Fail OK Close Normal
OT02 2020-02-28 01:04 -0.76 6.61 0.00 0.00 0.00 0.00 OK OK Close Normal
IN02 2020-02-28 01:03 -1.79 5.91 0.00 0.00 0.00 0.00 OK OK Close Normal
IN01 2020-02-28 01:04 -1.41 9.56 0.00 0.00 0.00 0.00 OK OK Close Normal
OT01 2020-02-28 01:05 -1.10 6.47 0.00 0.00 0.00 0.00 OK OK Close Normal
OT04 2020-02-28 01:04 -1.32 13.83 0.00 0.00 0.00 0.00 OK OK Close Normal
OT05 2020-02-28 01:04 0.09 -18.75 0.00 0.00 0.00 0.00 OK OK Close Normal
OT03 2020-02-28 01:05 -1.18 1.59 0.00 0.00 0.00 0.00 OK OK Close Normal
IN04 2020-02-28 01:05 -1.24 14.16 0.00 0.00 0.00 0.00 Fail OK Close Normal
OT02 2020-02-28 01:05 -0.74 7.50 0.00 0.00 0.00 0.00 OK OK Close Normal
IN02 2020-02-28 01:04 -1.79 5.77 0.00 0.00 0.00 0.00 OK OK Close Normal
IN01 2020-02-28 01:05 -1.41 8.53 0.00 0.00 0.00 0.00 OK OK Close Normal
OT01 2020-02-28 01:06 -1.05 6.33 0.00 0.00 0.00 0.00 OK OK Close Normal
OT04 2020-02-28 01:05 -1.32 14.34 0.00 0.00 0.00 0.00 OK OK Close Normal
OT05 2020-02-28 01:05 0.08 -18.75 0.00 0.00 0.00 0.00 OK OK Close Normal
OT03 2020-02-28 01:06 -1.17 2.02 0.00 0.00 0.00 0.00 OK OK Close Normal
IN04 2020-02-28 01:06 -1.24 14.53 0.00 0.00 0.00 0.00 Fail OK Close Normal
OT02 2020-02-28 01:06 -0.79 7.64 0.00 0.00 0.00 0.00 OK OK Close Normal
IN02 2020-02-28 01:05 -1.81 5.95 0.00 0.00 0.00 0.00 OK OK Close Normal
IN01 2020-02-28 01:06 -1.41 8.06 0.00 0.00 0.00 0.00 OK OK Close Normal
OT01 2020-02-28 01:07 -1.08 6.09 0.00 0.00 0.00 0.00 OK OK Close Normal
OT04 2020-02-28 01:06 -1.32 12.19 0.00 0.00 0.00 0.00 OK OK Close Normal
OT05 2020-02-28 01:06 0.04 -18.75 0.00 0.00 0.00 0.00 OK OK Close Normal
OT03 2020-02-28 01:07 -1.20 1.69 0.00 0.00 0.00 0.00 OK OK Close Normal
IN04 2020-02-28 01:07 -1.24 14.48 0.00 0.00 0.00 0.00 Fail OK Close Normal
OT02 2020-02-28 01:07 -0.75 7.03 0.00 0.00 0.00 0.00 OK OK Close Normal
IN02 2020-02-28 01:06 -1.80 5.72 0.00 0.00 0.00 0.00 OK OK Close Normal
IN01 2020-02-28 01:07 -1.41 9.52 0.00 0.00 0.00 0.00 OK OK Close Normal
OT01 2020-02-28 01:08 -1.09 6.47 0.00 0.00 0.00 0.00 OK OK Close Normal
OT04 2020-02-28 01:07 -1.34 11.81 0.00 0.00 0.00 0.00 OK OK Close Normal
OT05 2020-02-28 01:07 0.07 -18.75 0.00 0.00 0.00 0.00 OK OK Close Normal
OT03 2020-02-28 01:08 -1.18 2.02 0.00 0.00 0.00 0.00 OK OK Close Normal
IN04 2020-02-28 01:08 -1.24 14.34 0.00 0.00 0.00 0.00 Fail OK Close Normal
OT02 2020-02-28 01:08 -0.76 6.89 0.00 0.00 0.00 0.00 OK OK Close Normal
IN02 2020-02-28 01:07 -1.81 6.14 0.00 0.00 0.00 0.00 OK OK Close Normal
IN01 2020-02-28 01:08 -1.41 9.47 0.00 0.00 0.00 0.00 OK OK Close Normal
OT01 2020-02-28 01:09 -1.06 6.23 0.00 0.00 0.00 0.00 OK OK Close Normal
OT04 2020-02-28 01:08 -1.33 14.58 0.00 0.00 0.00 0.00 OK OK Close Normal
OT05 2020-02-28 01:08 0.01 -18.75 0.00 0.00 0.00 0.00 OK OK Close Normal
OT03 2020-02-28 01:09 -1.19 2.11 0.00 0.00 0.00 0.00 OK OK Close Normal
IN04 2020-02-28 01:09 -1.24 14.16 0.00 0.00 0.00 0.00 Fail OK Close Normal
OT02 2020-02-28 01:09 -0.80 7.27 0.00 0.00 0.00 0.00 OK OK Close Normal
IN02 2020-02-28 01:08 -1.81 6.14 0.00 0.00 0.00 0.00 OK OK Close Normal
IN01 2020-02-28 01:09 -1.41 8.91 0.00 0.00 0.00 0.00 OK OK Close Normal
OT01 2020-02-28 01:10 -1.07 6.00 0.00 0.00 0.00 0.00 OK OK Close Normal
OT04 2020-02-28 01:09 -1.37 -0.23 0.00 0.00 0.00 0.00 OK OK Close Normal
OT05 2020-02-28 01:09 0.07 -18.75 0.00 0.00 0.00 0.00 OK OK Close Normal
OT03 2020-02-28 01:10 -1.21 2.11 0.00 0.00 0.00 0.00 OK OK Close Normal
IN04 2020-02-28 01:10 -1.24 14.39 0.00 0.00 0.00 0.00 Fail OK Close Normal
OT02 2020-02-28 01:10 -0.79 7.27 0.00 0.00 0.00 0.00 OK OK Close Normal
IN02 2020-02-28 01:09 -1.79 6.00 0.00 0.00 0.00 0.00 OK OK Close Normal
IN01 2020-02-28 01:10 -1.41 6.84 0.00 0.00 0.00 0.00 OK OK Close Normal
OT01 2020-02-28 01:11 -1.07 6.47 0.00 0.00 0.00 0.00 OK OK Close Normal
OT04 2020-02-28 01:10 -1.28 14.30 0.00 0.00 0.00 0.00 OK OK Close Normal
OT05 2020-02-28 01:10 0.05 -18.75 0.00 0.00 0.00 0.00 OK OK Close Normal
OT03 2020-02-28 01:11 -1.21 2.02 0.00 0.00 0.00 0.00 OK OK Close Normal
IN04 2020-02-28 01:11 -1.25 14.53 0.00 0.00 0.00 0.00 Fail OK Close Normal
OT02 2020-02-28 01:11 -0.76 7.55 0.00 0.00 0.00 0.00 OK OK Close Normal
IN02 2020-02-28 01:10 -1.79 6.09 0.00 0.00 0.00 0.00 OK OK Close Normal
IN01 2020-02-28 01:11 -1.44 8.34 0.00 0.00 0.00 0.00 OK OK Close Normal
OT01 2020-02-28 01:12 -1.11 6.52 0.00 0.00 0.00 0.00 OK OK Close Normal
OT04 2020-02-28 01:11 -1.34 14.25 0.00 0.00 0.00 0.00 OK OK Close Normal
OT05 2020-02-28 01:11 0.01 -18.75 0.00 0.00 0.00 0.00 OK OK Close Normal
OT03 2020-02-28 01:12 -1.24 1.83 0.00 0.00 0.00 0.00 OK OK Close Normal
IN04 2020-02-28 01:12 -1.25 14.34 0.00 0.00 0.00 0.00 Fail OK Close Normal
OT02 2020-02-28 01:12 -0.77 7.41 0.00 0.00 0.00 0.00 OK OK Close Normal
IN02 2020-02-28 01:11 -1.80 6.28 0.00 0.00 0.00 0.00 OK OK Close Normal
IN01 2020-02-28 01:12 -1.41 8.63 0.00 0.00 0.00 0.00 OK OK Close Normal
OT01 2020-02-28 01:13 -1.07 6.19 0.00 0.00 0.00 0.00 OK OK Close Normal
OT04 2020-02-28 01:12 -1.32 14.06 0.00 0.00 0.00 0.00 OK OK Close Normal
OT05 2020-02-28 01:12 0.04 -18.75 0.00 0.00 0.00 0.00 OK OK Close Normal
OT03 2020-02-28 01:13 -1.21 2.16 0.00 0.00 0.00 0.00 OK OK Close Normal
IN04 2020-02-28 01:13 -1.25 14.16 0.00 0.00 0.00 0.00 Fail OK Close Normal
OT02 2020-02-28 01:13 -0.78 7.50 0.00 0.00 0.00 0.00 OK OK Close Normal
IN02 2020-02-28 01:12 -1.79 6.28 0.00 0.00 0.00 0.00 OK OK Close Normal
IN01 2020-02-28 01:13 -1.42 8.95 0.00 0.00 0.00 0.00 OK OK Close Normal
OT01 2020-02-28 01:14 -1.10 6.56 0.00 0.00 0.00 0.00 OK OK Close Normal
OT04 2020-02-28 01:13 -1.33 -0.47 0.00 0.00 0.00 0.00 OK OK Close Normal
OT05 2020-02-28 01:13 0.04 -18.75 0.00 0.00 0.00 0.00 OK OK Close Normal
OT03 2020-02-28 01:14 -1.21 1.83 0.00 0.00 0.00 0.00 OK OK Close Normal
IN04 2020-02-28 01:14 -1.24 14.30 0.00 0.00 0.00 0.00 Fail OK Close Normal
OT02 2020-02-28 01:14 -0.82 7.22 0.00 0.00 0.00 0.00 OK OK Close Normal
IN02 2020-02-28 01:13 -1.81 6.42 0.00 0.00 0.00 0.00 OK OK Close Normal
IN01 2020-02-28 01:14 -1.42 8.53 0.00 0.00 0.00 0.00 OK OK Close Normal
OT01 2020-02-28 01:15 -1.09 5.95 0.00 0.00 0.00 0.00 OK OK Close Normal
OT04 2020-02-28 01:14 -1.24 13.83 0.00 0.00 0.00 0.00 OK OK Close Normal
OT05 2020-02-28 01:14 0.05 -18.75 0.00 0.00 0.00 0.00 OK OK Close Normal
OT03 2020-02-28 01:15 -1.23 1.92 0.00 0.00 0.00 0.00 OK OK Close Normal
IN04 2020-02-28 01:15 -1.25 14.11 0.00 0.00 0.00 0.00 Fail OK Close Normal
OT02 2020-02-28 01:15 -0.77 7.50 0.00 0.00 0.00 0.00 OK OK Close Normal
IN02 2020-02-28 01:14 -1.80 6.05 0.00 0.00 0.00 0.00 OK OK Close Normal
IN01 2020-02-28 01:15 -1.43 8.53 0.00 0.00 0.00 0.00 OK OK Close Normal
OT01 2020-02-28 01:16 -1.13 6.28 0.00 0.00 0.00 0.00 OK OK Close Normal
OT04 2020-02-28 01:15 -1.36 -0.38 0.00 0.00 0.00 0.00 OK OK Close Normal
OT05 2020-02-28 01:15 0.02 -18.75 0.00 0.00 0.00 0.00 OK OK Close Normal
OT03 2020-02-28 01:16 -1.20 1.88 0.00 0.00 0.00 0.00 OK OK Close Normal
IN04 2020-02-28 01:16 -1.25 14.16 0.00 0.00 0.00 0.00 Fail OK Close Normal
OT02 2020-02-28 01:16 -0.79 7.41 0.00 0.00 0.00 0.00 OK OK Close Normal
IN02 2020-02-28 01:15 -1.80 6.33 0.00 0.00 0.00 0.00 OK OK Close Normal
IN01 2020-02-28 01:16 -1.42 8.48 0.00 0.00 0.00 0.00 OK OK Close Normal
OT01 2020-02-28 01:17 -1.12 6.52 0.00 0.00 0.00 0.00 OK OK Close Normal
OT04 2020-02-28 01:16 -1.33 14.11 0.00 0.00 0.00 0.00 OK OK Close Normal
OT05 2020-02-28 01:16 0.04 -18.75 0.00 0.00 0.00 0.00 OK OK Close Normal
OT03 2020-02-28 01:17 -1.23 1.97 0.00 0.00 0.00 0.00 OK OK Close Normal
IN04 2020-02-28 01:17 -1.25 14.39 0.00 0.00 0.00 0.00 Fail OK Close Normal
OT02 2020-02-28 01:17 -0.79 7.55 0.00 0.00 0.00 0.00 OK OK Close Normal
IN02 2020-02-28 01:16 -1.80 6.23 0.00 0.00 0.00 0.00 OK OK Close Normal
IN01 2020-02-28 01:17 -1.42 8.53 0.00 0.00 0.00 0.00 OK OK Close Normal
OT01 2020-02-28 01:18 -1.11 7.64 0.00 0.00 0.00 0.00 OK OK Close Normal
OT04 2020-02-28 01:17 -1.31 -0.80 0.00 0.00 0.00 0.00 OK OK Close Normal
OT05 2020-02-28 01:17 -0.01 -18.75 0.00 0.00 0.00 0.00 OK OK Close Normal
OT03 2020-02-28 01:18 -1.23 1.83 0.00 0.00 0.00 0.00 OK OK Close Normal
IN04 2020-02-28 01:18 -1.24 14.39 0.00 0.00 0.00 0.00 Fail OK Close Normal
OT02 2020-02-28 01:18 -0.79 7.55 0.00 0.00 0.00 0.00 OK OK Close Normal
IN02 2020-02-28 01:17 -1.80 6.23 0.00 0.00 0.00 0.00 OK OK Close Normal
IN01 2020-02-28 01:18 -1.42 8.16 0.00 0.00 0.00 0.00 OK OK Close Normal
OT01 2020-02-28 01:19 -1.09 6.05 0.00 0.00 0.00 0.00 OK OK Close Normal
OT04 2020-02-28 01:18 -1.36 -0.47 0.00 0.00 0.00 0.00 OK OK Close Normal
OT05 2020-02-28 01:18 -0.02 -18.75 0.00 0.00 0.00 0.00 OK OK Close Normal
OT03 2020-02-28 01:19 -1.23 1.97 0.00 0.00 0.00 0.00 OK OK Close Normal
IN04 2020-02-28 01:19 -1.25 14.20 0.00 0.00 0.00 0.00 Fail OK Close Normal
OT02 2020-02-28 01:19 -0.80 6.80 0.00 0.00 0.00 0.00 OK OK Close Normal
IN02 2020-02-28 01:18 -1.81 6.42 0.00 0.00 0.00 0.00 OK OK Close Normal
IN01 2020-02-28 01:19 -1.42 9.23 0.00 0.00 0.00 0.00 OK OK Close Normal
OT01 2020-02-28 01:20 -1.11 5.95 0.00 0.00 0.00 0.00 OK OK Close Normal
OT04 2020-02-28 01:19 -1.35 -0.05 0.00 0.00 0.00 0.00 OK OK Close Normal
OT05 2020-02-28 01:19 0.02 -18.75 0.00 0.00 0.00 0.00 OK OK Close Normal
OT03 2020-02-28 01:20 -1.24 2.30 0.00 0.00 0.00 0.00 OK OK Close Normal
IN04 2020-02-28 01:20 -1.25 14.20 0.00 0.00 0.00 0.00 Fail OK Close Normal
OT02 2020-02-28 01:20 -0.80 7.55 0.00 0.00 0.00 0.00 OK OK Close Normal
IN02 2020-02-28 01:19 -1.80 5.91 0.00 0.00 0.00 0.00 OK OK Close Normal
IN01 2020-02-28 01:20 -1.42 8.25 0.00 0.00 0.00 0.00 OK OK Close Normal
OT01 2020-02-28 01:21 -1.14 6.14 0.00 0.00 0.00 0.00 OK OK Close Normal
OT04 2020-02-28 01:20 -1.37 -0.38 0.00 0.00 0.00 0.00 OK OK Close Normal
OT05 2020-02-28 01:20 0.01 -18.75 0.00 0.00 0.00 0.00 OK OK Close Normal
OT03 2020-02-28 01:21 -1.20 2.02 0.00 0.00 0.00 0.00 OK OK Close Normal
IN04 2020-02-28 01:21 -1.26 14.25 0.00 0.00 0.00 0.00 Fail OK Close Normal
OT02 2020-02-28 01:21 -0.80 6.94 0.00 0.00 0.00 0.00 OK OK Close Normal
IN02 2020-02-28 01:20 -1.80 5.72 0.00 0.00 0.00 0.00 OK OK Close Normal
IN01 2020-02-28 01:21 -1.42 8.67 0.00 0.00 0.00 0.00 OK OK Close Normal
OT01 2020-02-28 01:22 -1.16 5.91 0.00 0.00 0.00 0.00 OK OK Close Normal
OT04 2020-02-28 01:21 -1.33 14.25 0.00 0.00 0.00 0.00 OK OK Close Normal
OT05 2020-02-28 01:21 0.01 -18.75 0.00 0.00 0.00 0.00 OK OK Close Normal
OT03 2020-02-28 01:22 -1.22 2.30 0.00 0.00 0.00 0.00 OK OK Close Normal
IN04 2020-02-28 01:22 -1.25 14.39 0.00 0.00 0.00 0.00 Fail OK Close Normal
OT02 2020-02-28 01:22 -0.82 7.17 0.00 0.00 0.00 0.00 OK OK Close Normal
IN02 2020-02-28 01:21 -1.80 6.33 0.00 0.00 0.00 0.00 OK OK Close Normal
IN01 2020-02-28 01:22 -1.42 8.39 0.00 0.00 0.00 0.00 OK OK Close Normal
OT01 2020-02-28 01:23 -1.17 6.38 0.00 0.00 0.00 0.00 OK OK Close Normal
OT04 2020-02-28 01:22 -1.38 -0.23 0.00 0.00 0.00 0.00 OK OK Close Normal
OT05 2020-02-28 01:22 0.02 -18.75 0.00 0.00 0.00 0.00 OK OK Close Normal
OT03 2020-02-28 01:23 -1.24 1.83 0.00 0.00 0.00 0.00 OK OK Close Normal
IN04 2020-02-28 01:23 -1.25 14.30 0.00 0.00 0.00 0.00 Fail OK Close Normal
OT02 2020-02-28 01:23 -0.82 7.31 0.00 0.00 0.00 0.00 OK OK Close Normal
IN02 2020-02-28 01:22 -1.83 6.05 0.00 0.00 0.00 0.00 OK OK Close Normal
IN01 2020-02-28 01:23 -1.42 8.44 0.00 0.00 0.00 0.00 OK OK Close Normal
OT01 2020-02-28 01:24 -1.13 6.42 0.00 0.00 0.00 0.00 OK OK Close Normal
OT04 2020-02-28 01:23 -1.36 -0.28 0.00 0.00 0.00 0.00 OK OK Close Normal
OT05 2020-02-28 01:23 0.01 -18.75 0.00 0.00 0.00 0.00 OK OK Close Normal
OT03 2020-02-28 01:24 -1.25 1.97 0.00 0.00 0.00 0.00 OK OK Close Normal
IN04 2020-02-28 01:24 -1.26 14.30 0.00 0.00 0.00 0.00 Fail OK Close Normal
OT02 2020-02-28 01:24 -0.82 7.31 0.00 0.00 0.00 0.00 OK OK Close Normal
IN02 2020-02-28 01:23 -1.82 6.38 0.00 0.00 0.00 0.00 OK OK Close Normal
IN01 2020-02-28 01:24 -1.42 9.05 0.00 0.00 0.00 0.00 OK OK Close Normal
OT01 2020-02-28 01:25 -1.14 6.00 0.00 0.00 0.00 0.00 OK OK Close Normal
OT04 2020-02-28 01:24 -1.37 -0.23 0.00 0.00 0.00 0.00 OK OK Close Normal
OT05 2020-02-28 01:24 -0.04 -18.75 0.00 0.00 0.00 0.00 OK OK Close Normal
OT03 2020-02-28 01:25 -1.25 2.11 0.00 0.00 0.00 0.00 OK OK Close Normal
IN04 2020-02-28 01:25 -1.26 14.30 0.00 0.00 0.00 0.00 Fail OK Close Normal
OT02 2020-02-28 01:25 -0.82 7.31 0.00 0.00 0.00 0.00 OK OK Close Normal
IN02 2020-02-28 01:24 -1.82 6.38 0.00 0.00 0.00 0.00 OK OK Close Normal
IN01 2020-02-28 01:25 -1.43 9.00 0.00 0.00 0.00 0.00 OK OK Close Normal
OT01 2020-02-28 01:26 -1.14 5.72 0.00 0.00 0.00 0.00 OK OK Close Normal
OT04 2020-02-28 01:25 -1.38 -0.05 0.00 0.00 0.00 0.00 OK OK Close Normal
OT05 2020-02-28 01:25 0.01 -18.75 0.00 0.00 0.00 0.00 OK OK Close Normal
OT03 2020-02-28 01:26 -1.25 1.69 0.00 0.00 0.00 0.00 OK OK Close Normal
IN04 2020-02-28 01:26 -1.26 14.20 0.00 0.00 0.00 0.00 Fail OK Close Normal
OT02 2020-02-28 01:26 -0.85 7.83 0.00 0.00 0.00 0.00 OK OK Close Normal
IN02 2020-02-28 01:25 -1.80 5.91 0.00 0.00 0.00 0.00 OK OK Close Normal
IN01 2020-02-28 01:26 -1.43 9.42 0.00 0.00 0.00 0.00 OK OK Close Normal
OT01 2020-02-28 01:27 -1.14 6.23 0.00 0.00 0.00 0.00 OK OK Close Normal
OT04 2020-02-28 01:26 -1.37 -0.47 0.00 0.00 0.00 0.00 OK OK Close Normal
OT05 2020-02-28 01:26 0.00 -18.75 0.00 0.00 0.00 0.00 OK OK Close Normal
OT03 2020-02-28 01:27 -1.25 1.73 0.00 0.00 0.00 0.00 OK OK Close Normal
IN04 2020-02-28 01:27 -1.26 14.44 0.00 0.00 0.00 0.00 Fail OK Close Normal
IN02 2020-02-28 01:26 -1.81 6.00 0.00 0.00 0.00 0.00 OK OK Close Normal
OT02 2020-02-28 01:27 -0.87 7.45 0.00 0.00 0.00 0.00 OK OK Close Normal
IN01 2020-02-28 01:27 -1.45 9.23 0.00 0.00 0.00 0.00 OK OK Close Normal
OT01 2020-02-28 01:28 -1.21 6.23 0.00 0.00 0.00 0.00 OK OK Close Normal
OT04 2020-02-28 01:27 -1.39 -0.56 0.00 0.00 0.00 0.00 OK OK Close Normal
OT05 2020-02-28 01:27 -0.01 -18.75 0.00 0.00 0.00 0.00 OK OK Close Normal
OT03 2020-02-28 01:28 -1.27 1.73 0.00 0.00 0.00 0.00 OK OK Close Normal
IN04 2020-02-28 01:28 -1.26 14.20 0.00 0.00 0.00 0.00 Fail OK Close Normal
OT02 2020-02-28 01:28 -0.83 6.66 0.00 0.00 0.00 0.00 OK OK Close Normal
IN02 2020-02-28 01:27 -1.81 6.38 0.00 0.00 0.00 0.00 OK OK Close Normal
IN01 2020-02-28 01:28 -1.43 9.09 0.00 0.00 0.00 0.00 OK OK Close Normal
OT01 2020-02-28 01:29 -1.14 6.14 0.00 0.00 0.00 0.00 OK OK Close Normal
OT04 2020-02-28 01:28 -1.38 -0.61 0.00 0.00 0.00 0.00 OK OK Close Normal
OT05 2020-02-28 01:28 -0.01 -18.75 0.00 0.00 0.00 0.00 OK OK Close Normal
OT03 2020-02-28 01:29 -1.26 1.92 0.00 0.00 0.00 0.00 OK OK Close Normal
IN04 2020-02-28 01:29 -1.26 14.44 0.00 0.00 0.00 0.00 Fail OK Close Normal
IN02 2020-02-28 01:28 -1.81 6.28 0.00 0.00 0.00 0.00 OK OK Close Normal
OT02 2020-02-28 01:29 -0.83 7.22 0.00 0.00 0.00 0.00 OK OK Close Normal
IN01 2020-02-28 01:29 -1.45 9.38 0.00 0.00 0.00 0.00 OK OK Close Normal
OT01 2020-02-28 01:30 -1.19 6.00 0.00 0.00 0.00 0.00 OK OK Close Normal
OT04 2020-02-28 01:29 -1.38 -0.47 0.00 0.00 0.00 0.00 OK OK Close Normal
OT05 2020-02-28 01:29 -0.01 -18.75 0.00 0.00 0.00 0.00 OK OK Close Normal
OT03 2020-02-28 01:30 -1.24 2.02 0.00 0.00 0.00 0.00 OK OK Close Normal
IN04 2020-02-28 01:30 -1.26 14.44 0.00 0.00 0.00 0.00 Fail OK Close Normal
OT02 2020-02-28 01:30 -0.85 7.27 0.00 0.00 0.00 0.00 OK OK Close Normal
IN02 2020-02-28 01:29 -1.81 6.33 0.00 0.00 0.00 0.00 OK OK Close Normal
IN01 2020-02-28 01:30 -1.44 9.56 0.00 0.00 0.00 0.00 OK OK Close Normal
OT01 2020-02-28 01:31 -1.16 6.33 0.00 0.00 0.00 0.00 OK OK Close Normal
OT04 2020-02-28 01:30 -1.40 -0.47 0.00 0.00 0.00 0.00 OK OK Close Normal
OT05 2020-02-28 01:30 -0.01 -18.75 0.00 0.00 0.00 0.00 OK OK Close Normal
OT03 2020-02-28 01:31 -1.27 2.06 0.00 0.00 0.00 0.00 OK OK Close Normal
IN04 2020-02-28 01:31 -1.26 14.20 0.00 0.00 0.00 0.00 Fail OK Close Normal
OT02 2020-02-28 01:31 -0.89 7.17 0.00 0.00 0.00 0.00 OK OK Close Normal
IN02 2020-02-28 01:30 -1.81 6.14 0.00 0.00 0.00 0.00 OK OK Close Normal